Hunters Hill, Australia
Current Conditions -  °F | °C
As of 2:00 AM on Monday 22 Dec 2014 (Local Time) from YMAY Reporting Station
Clear Clear  
Wind Chill: 70°   Ceiling: Unl
Heat Index: 70°   Visibility: 6mi
Dew Point: 54°   Wind: 2mph
Humidity: 56%   Direction: 130°SE
Pressure: 29.88"   Gusts: NA
Location:  36.22°S, 147.53°E
Report Text: YMAY 211500Z AUTO 13002KT 9999 // NCD 21/12 Q1012
Loading
Personal Weather Stations






























Interactive Weather Map New forecast layout! Learn more

10-Day Weather Forecast

Advertisements
Track Severe Weather on mobile